ADDS METAR Data INFO
IDs: Format: Raw Decoded Include TAF

Data at: 0733 UTC 18 Oct 2017

KHWY 180715Z AUTO 00000KT 10SM CLR 01/00 A3033 RMK AO2 T00140001
KHWY 180655Z AUTO 00000KT 10SM CLR 01/00 A3033 RMK AO2 T00111002
KHWY 180635Z AUTO 00000KT 10SM CLR 01/00 A3033 RMK AO2 T00130000
KHWY 180615Z AUTO 00000KT 10SM CLR 01/00 A3033 RMK AO2 T00141001
KHWY 180555Z AUTO 00000KT 10SM CLR 02/00 A3033 RMK AO2 T00150000 10069 20013 401870005
KHWY 180535Z AUTO 00000KT 10SM CLR 02/00 A3033 RMK AO2 T00150000
KHWY 180515Z AUTO 00000KT 10SM CLR 02/00 A3033 RMK AO2 T00160001
KHWY 180455Z AUTO 00000KT 10SM CLR 02/00 A3033 RMK AO2 T00180002
KHWY 180435Z AUTO 00000KT 10SM CLR 02/00 A3033 RMK AO2 T00210002
KHWY 180415Z AUTO 00000KT 10SM CLR 03/01 A3033 RMK AO2 T00250007
KHWY 180355Z AUTO 00000KT 10SM CLR 03/01 A3034 RMK AO2 T00260006
KHWY 180335Z AUTO 00000KT 10SM CLR 04/01 A3034 RMK AO2 T00350014
KHWY 180315Z AUTO 00000KT 10SM CLR 03/01 A3034 RMK AO2 T00250008
KHWY 180255Z AUTO 00000KT 10SM CLR 03/01 A3035 RMK AO2 T00270009
KHWY 180235Z AUTO 00000KT 10SM CLR 03/01 A3034 RMK AO2 T00280009
KHWY 180215Z AUTO 00000KT 10SM CLR 03/01 A3034 RMK AO2 T00300011
KHWY 180155Z AUTO 00000KT 10SM CLR 03/01 A3033 RMK AO2 T00300008
KHWY 180135Z AUTO 00000KT 10SM CLR 05/02 A3033 RMK AO2 T00450016
KHWY 180115Z AUTO 00000KT 10SM CLR 04/01 A3032 RMK AO2 T00390011
KHWY 180055Z AUTO 00000KT 10SM CLR 04/01 A3031 RMK AO2 T00440013
KHWY 180035Z AUTO 00000KT 10SM CLR 05/02 A3031 RMK AO2 T00510015
KHWY 180015Z AUTO 00000KT 10SM CLR 07/02 A3031 RMK AO2 T00670016
KHWY 172355Z AUTO 00000KT 10SM CLR 06/01 A3030 RMK AO2 T00630014 10187 20063
KHWY 172335Z AUTO 13003KT 10SM CLR 08/01 A3030 RMK AO2 T00770013
KHWY 172315Z AUTO 00000KT 10SM CLR 09/01 A3030 RMK AO2 T00870005
KHWY 172255Z AUTO 13003KT 10SM CLR 11/00 A3029 RMK AO2 T01120001
KHWY 172235Z AUTO 00000KT 10SM CLR 12/00 A3029 RMK AO2 T01191004
KHWY 172215Z AUTO 00000KT 10SM CLR 14/00 A3029 RMK AO2 T01391002
KHWY 172155Z AUTO 00000KT 10SM CLR 17/M04 A3029 RMK AO2 T01661041
KHWY 172135Z AUTO 00000KT 10SM CLR 17/M06 A3029 RMK AO2 T01721056
KHWY 172115Z AUTO 00000KT 10SM CLR 18/M06 A3029 RMK AO2 T01761061
KHWY 172055Z AUTO 00000KT 10SM CLR 18/M06 A3029 RMK AO2 T01761060
KHWY 172035Z AUTO 00000KT 10SM CLR 18/M07 A3030 RMK AO2 T01791069
KHWY 172015Z AUTO 00000KT 10SM CLR 18/M06 A3030 RMK AO2 T01811061
KHWY 171955Z AUTO 00000KT 10SM CLR 18/M07 A3030 RMK AO2 T01781072
KHWY 171935Z AUTO 00000KT 10SM CLR 18/M07 A3030 RMK AO2 T01801073
KHWY 171915Z AUTO 35004KT 10SM CLR 18/M06 A3030 RMK AO2 T01781064
KHWY 171855Z AUTO 00000KT 10SM CLR 18/M05 A3031 RMK AO2 T01821052
KHWY 171835Z AUTO 00000KT 10SM CLR 18/M05 A3031 RMK AO2 T01751054
KHWY 171815Z AUTO 01006KT 10SM CLR 17/M05 A3032 RMK AO2 T01731047
KHWY 171755Z AUTO 03004KT 10SM CLR 18/M05 A3033 RMK AO2 T01751051 10176 20020
KHWY 171735Z AUTO 04003KT 10SM CLR 17/M05 A3033 RMK AO2 T01741048
KHWY 171715Z AUTO 32007KT 10SM CLR 17/M04 A3034 RMK AO2 T01701044
KHWY 171655Z AUTO 25003KT 10SM CLR 16/M03 A3036 RMK AO2 T01601032
KHWY 171635Z AUTO 33004KT 10SM CLR 16/M03 A3036 RMK AO2 T01561035
KHWY 171615Z AUTO 02006KT 10SM CLR 15/M01 A3038 RMK AO2 T01501011
KHWY 171555Z AUTO 10003KT 10SM CLR 15/M01 A3038 RMK AO2 T01471007
KHWY 171535Z AUTO 02006KT 10SM CLR 14/M01 A3038 RMK AO2 T01421011
KHWY 171515Z AUTO 01005KT 10SM CLR 14/M01 A3039 RMK AO2 T01371009
KHWY 171455Z AUTO 03007KT 10SM CLR 13/M01 A3039 RMK AO2 T01341008
KHWY 171435Z AUTO 03006KT 10SM CLR 13/00 A3040 RMK AO2 T01301001
KHWY 171415Z AUTO 02007KT 10SM CLR 12/00 A3040 RMK AO2 T01220002
KHWY 171355Z AUTO 01006KT 10SM CLR 12/02 A3040 RMK AO2 T01180015
KHWY 171335Z AUTO 00000KT 10SM CLR 11/03 A3040 RMK AO2 T01060028
KHWY 171315Z AUTO 34003KT 10SM CLR 10/03 A3039 RMK AO2 T00960028
KHWY 171255Z AUTO 00000KT 10SM CLR 08/03 A3039 RMK AO2 T00800034
KHWY 171235Z AUTO 00000KT 10SM CLR 05/03 A3038 RMK AO2 T00500027
KHWY 171215Z AUTO 00000KT 10SM CLR 03/01 A3037 RMK AO2 T00320014
KHWY 171155Z AUTO 13004KT 10SM CLR 02/00 A3036 RMK AO2 T00180004 10054 20005
KHWY 171135Z AUTO 00000KT 10SM CLR 01/00 A3036 RMK AO2 T00130001
KHWY 171115Z AUTO 00000KT 10SM CLR 01/M01 A3035 RMK AO2 T00061006
KHWY 171055Z AUTO 00000KT 10SM CLR 01/00 A3035 RMK AO2 T00111002
KHWY 171035Z AUTO 00000KT 10SM CLR 01/00 A3034 RMK AO2 T00111004
KHWY 171015Z AUTO 00000KT 10SM CLR 01/00 A3033 RMK AO2 T00131001
KHWY 170955Z AUTO 00000KT 10SM CLR 02/00 A3033 RMK AO2 T00160000
KHWY 170935Z AUTO 00000KT 10SM CLR 02/01 A3032 RMK AO2 T00230008
KHWY 170915Z AUTO 00000KT 10SM CLR 02/00 A3032 RMK AO2 T00151001
KHWY 170855Z AUTO 00000KT 10SM CLR 02/01 A3031 RMK AO2 T00240006
KHWY 170835Z AUTO 00000KT 10SM CLR 03/00 A3030 RMK AO2 T00290004
KHWY 170815Z AUTO 00000KT 10SM CLR 04/01 A3029 RMK AO2 T00370009
KHWY 170755Z AUTO 00000KT 10SM CLR 04/01 A3029 RMK AO2 T00390005
KHWY 170735Z AUTO 31003KT 10SM CLR 05/01 A3028 RMK AO2 T00500010
KHWY 170715Z AUTO 31004KT 10SM CLR 05/01 A3028 RMK AO2 T00470012
KHWY 170655Z AUTO 32003KT 10SM CLR 04/01 A3028 RMK AO2 T00350012
KHWY 170635Z AUTO 00000KT 10SM CLR 04/01 A3028 RMK AO2 T00430012
KHWY 170615Z AUTO 13004KT 10SM CLR 05/02 A3028 RMK AO2 T00500020
KHWY 170555Z AUTO 00000KT 10SM CLR 05/01 A3027 RMK AO2 T00460014 10089 20046 401980046
KHWY 170535Z AUTO 00000KT 10SM CLR 06/01 A3028 RMK AO2 T00570014
KHWY 170515Z AUTO 31004KT 10SM CLR 07/02 A3027 RMK AO2 T00690017
KHWY 170455Z AUTO 36003KT 10SM CLR 08/02 A3027 RMK AO2 T00750021
KHWY 170435Z AUTO 31007KT 10SM CLR 07/02 A3026 RMK AO2 T00680020
KHWY 170415Z AUTO 32003KT 10SM CLR 06/02 A3027 RMK AO2 T00590019
KHWY 170355Z AUTO 31005KT 10SM CLR 07/02 A3027 RMK AO2 T00710022
KHWY 170335Z AUTO 33004KT 10SM CLR 06/02 A3026 RMK AO2 T00630023
KHWY 170315Z AUTO 00000KT 10SM CLR 07/02 A3027 RMK AO2 T00700023
KHWY 170255Z AUTO 30005KT 10SM CLR 08/02 A3026 RMK AO2 T00800023
KHWY 170235Z AUTO 32006KT 10SM CLR 09/03 A3026 RMK AO2 T00890027
KHWY 170215Z AUTO 33007KT 10SM CLR 08/03 A3025 RMK AO2 T00790030
KHWY 170155Z AUTO 32003KT 10SM CLR 05/03 A3024 RMK AO2 T00510029
KHWY 170135Z AUTO 00000KT 10SM CLR 06/03 A3023 RMK AO2 T00580025
KHWY 170115Z AUTO 00000KT 10SM CLR 06/03 A3022 RMK AO2 T00570029
KHWY 170055Z AUTO 00000KT 10SM CLR 09/03 A3022 RMK AO2 T00860026
KHWY 170035Z AUTO 00000KT 10SM CLR 07/03 A3021 RMK AO2 T00680031
KHWY 170015Z AUTO 28003KT 10SM CLR 08/03 A3020 RMK AO2 T00770028
KHWY 162355Z AUTO 33004KT 10SM CLR 08/03 A3019 RMK AO2 T00810028 10194 20077
KHWY 162335Z AUTO 31003KT 10SM CLR 08/03 A3018 RMK AO2 T00790031
KHWY 162315Z AUTO 00000KT 10SM CLR 11/02 A3018 RMK AO2 T01070020
KHWY 162255Z AUTO 33004KT 10SM CLR 12/01 A3016 RMK AO2 T01240011
KHWY 162235Z AUTO 34006KT 10SM CLR 15/00 A3016 RMK AO2 T01461001
KHWY 162215Z AUTO 34009G15KT 10SM CLR 16/M01 A3015 RMK AO2 T01621009
KHWY 162155Z AUTO 33009G15KT 10SM CLR 17/M01 A3014 RMK AO2 T01701012
KHWY 162135Z AUTO 32010KT 10SM CLR 18/M02 A3013 RMK AO2 T01771017
KHWY 162115Z AUTO 33013G17KT 10SM CLR 18/M02 A3013 RMK AO2 T01821016
KHWY 162055Z AUTO 32012G17KT 10SM CLR 19/M02 A3013 RMK AO2 T01861016
KHWY 162035Z AUTO 32015G19KT 10SM CLR 19/M01 A3012 RMK AO2 T01901013
KHWY 162015Z AUTO 32012G16KT 10SM SCT065 19/00 A3012 RMK AO2 T01911005
KHWY 161955Z AUTO 32011G19KT 10SM SCT065 19/00 A3012 RMK AO2 T01910000
KHWY 161935Z AUTO 32014G19KT 10SM CLR 19/00 A3012 RMK AO2 T01920000